Time;durP1;ratioP1;P1;durP2;ratioP2;P2;SDS_P1;SDS_P2;PMS_P1;PMS_P2;Temp;Humidity;BMP_temperature;BMP_pressure;BME280_temperature;BME280_humidity;BME280_pressure;Samples;Min_cycle;Max_cycle;Signal;HPM_P1;HPM_P2
2021/05/15 00:00:11;;;;;;;15.40;4.57;;;14.30;99.90;;;;;;5082408;28;20199;-71
2021/05/15 00:02:38;;;;;;;12.93;3.80;;;14.70;99.90;;;;;;5082015;28;20190;-72
2021/05/15 00:05:08;;;;;;;20.27;4.83;;;14.90;99.90;;;;;;5082475;28;20277;-72
2021/05/15 00:07:35;;;;;;;12.17;4.23;;;15.10;99.90;;;;;;5066891;28;20300;-73
2021/05/15 00:10:02;;;;;;;8.27;4.00;;;15.20;99.90;;;;;;5098331;28;20228;-72
2021/05/15 00:12:28;;;;;;;17.23;4.13;;;15.00;99.90;;;;;;5083838;28;20193;-74
2021/05/15 00:14:55;;;;;;;10.83;3.43;;;14.80;99.90;;;;;;5089002;28;20190;-72
2021/05/15 00:17:21;;;;;;;9.77;3.20;;;14.60;99.90;;;;;;5084462;28;20265;-72
2021/05/15 00:19:48;;;;;;;11.53;3.30;;;14.40;99.90;;;;;;5084576;28;20189;-72
2021/05/15 00:22:15;;;;;;;10.10;3.43;;;14.40;99.90;;;;;;5066167;28;20198;-72
2021/05/15 00:24:41;;;;;;;16.90;3.43;;;14.30;99.90;;;;;;5068632;28;20591;-73
2021/05/15 00:27:08;;;;;;;7.67;2.90;;;14.30;99.90;;;;;;5072282;28;20186;-72
2021/05/15 00:29:34;;;;;;;14.00;3.33;;;14.40;99.90;;;;;;5082273;28;20317;-72
2021/05/15 00:32:00;;;;;;;9.50;3.10;;;14.40;99.90;;;;;;5082691;28;20213;-71
2021/05/15 00:34:26;;;;;;;12.00;3.27;;;14.30;99.90;;;;;;5061903;28;20189;-72
2021/05/15 00:36:53;;;;;;;15.83;3.37;;;14.20;99.90;;;;;;5063797;28;20187;-72
2021/05/15 00:39:20;;;;;;;11.53;3.00;;;14.30;99.90;;;;;;5083088;28;20211;-72
2021/05/15 00:41:46;;;;;;;12.20;3.27;;;14.30;99.90;;;;;;5083015;28;20202;-73
2021/05/15 00:46:52;;;;;;;6.90;3.10;;;14.30;99.90;;;;;;5080330;28;20186;-72
2021/05/15 00:49:18;;;;;;;12.53;3.20;;;14.30;99.90;;;;;;5064607;28;20268;-70
2021/05/15 00:51:45;;;;;;;5.33;3.13;;;14.30;99.90;;;;;;5082573;28;20190;-70
2021/05/15 00:54:12;;;;;;;9.87;3.17;;;14.30;99.90;;;;;;5083830;28;20191;-71
2021/05/15 00:56:40;;;;;;;10.57;3.53;;;14.30;99.90;;;;;;5063001;28;20200;-69
2021/05/15 00:59:07;;;;;;;8.73;3.13;;;14.30;99.90;;;;;;5058861;28;20298;-69
2021/05/15 01:01:33;;;;;;;8.17;3.27;;;14.20;99.90;;;;;;5085255;28;21427;-69
2021/05/15 01:03:59;;;;;;;9.03;3.70;;;14.20;99.90;;;;;;5083570;28;20791;-70
2021/05/15 01:06:25;;;;;;;9.57;3.20;;;14.20;99.90;;;;;;5063213;28;20248;-70
2021/05/15 01:08:53;;;;;;;11.93;3.70;;;14.20;99.90;;;;;;5084431;28;20658;-69
2021/05/15 01:11:21;;;;;;;8.67;3.43;;;14.20;99.90;;;;;;5083460;28;20190;-69
2021/05/15 01:13:58;;;;;;;13.30;3.77;;;14.20;99.90;;;;;;5062115;28;20608;-70
2021/05/15 01:16:25;;;;;;;9.30;3.67;;;14.20;99.90;;;;;;5081470;28;20201;-70
2021/05/15 01:18:53;;;;;;;11.23;3.63;;;14.10;99.90;;;;;;5083905;28;20190;-70
2021/05/15 01:21:20;;;;;;;7.40;3.33;;;14.10;99.90;;;;;;5084425;28;20339;-68
2021/05/15 01:23:47;;;;;;;13.13;3.70;;;14.10;99.90;;;;;;5083498;28;20182;-70
2021/05/15 01:26:23;;;;;;;12.97;3.33;;;14.10;99.90;;;;;;5082357;28;20197;-69
2021/05/15 01:28:54;;;;;;;8.17;3.27;;;14.20;99.90;;;;;;5071503;28;20277;-72
2021/05/15 01:31:21;;;;;;;5.57;3.17;;;14.20;99.90;;;;;;5064493;28;20186;-71
2021/05/15 01:33:48;;;;;;;9.50;3.20;;;14.20;99.90;;;;;;5082417;28;20187;-73
2021/05/15 01:36:14;;;;;;;9.27;3.20;;;14.30;99.90;;;;;;5082223;28;20654;-72
2021/05/15 01:38:41;;;;;;;6.97;2.97;;;14.20;99.90;;;;;;5081862;28;20187;-70
2021/05/15 01:41:11;;;;;;;9.13;3.30;;;14.10;99.90;;;;;;5082216;28;20201;-69
2021/05/15 01:43:39;;;;;;;8.17;3.20;;;14.10;99.90;;;;;;5078854;28;20205;-70
2021/05/15 01:46:08;;;;;;;10.37;3.63;;;14.00;99.90;;;;;;5082576;28;20714;-71
2021/05/15 01:48:35;;;;;;;7.77;3.10;;;14.10;99.90;;;;;;5083482;28;20555;-69
2021/05/15 01:51:13;;;;;;;8.67;2.97;;;13.90;99.90;;;;;;5079111;28;20666;-70
2021/05/15 01:53:46;;;;;;;7.20;2.60;;;13.80;99.90;;;;;;5087656;28;20198;-70
2021/05/15 01:56:32;;;;;;;5.80;2.60;;;13.70;99.90;;;;;;5083392;28;20192;-71
2021/05/15 01:58:59;;;;;;;9.60;2.80;;;13.60;99.90;;;;;;5060143;28;20270;-70
2021/05/15 02:01:27;;;;;;;7.73;2.83;;;13.50;99.90;;;;;;5067398;28;20190;-70
2021/05/15 02:03:53;;;;;;;8.10;3.00;;;13.50;99.90;;;;;;5087357;28;20684;-72
2021/05/15 02:06:20;;;;;;;5.37;2.60;;;13.40;99.90;;;;;;5085514;28;20214;-70
2021/05/15 02:08:48;;;;;;;8.73;3.23;;;13.40;99.90;;;;;;5081024;28;20199;-71
2021/05/15 02:11:17;;;;;;;7.27;2.50;;;13.40;99.90;;;;;;5089138;28;20206;-69
2021/05/15 02:13:49;;;;;;;10.33;3.00;;;13.30;99.90;;;;;;5068903;28;20186;-70
2021/05/15 02:16:18;;;;;;;8.33;2.60;;;13.30;99.90;;;;;;5086211;28;20194;-70
2021/05/15 02:18:46;;;;;;;10.87;3.00;;;13.20;99.90;;;;;;5086892;28;20212;-70
2021/05/15 02:21:13;;;;;;;6.80;3.10;;;13.20;99.90;;;;;;5088811;28;20333;-69
2021/05/15 02:23:39;;;;;;;9.70;2.93;;;13.20;99.90;;;;;;5089045;28;20201;-71
2021/05/15 02:26:06;;;;;;;10.73;3.33;;;13.10;99.90;;;;;;5083709;28;20208;-70
2021/05/15 02:28:33;;;;;;;8.23;3.07;;;13.10;99.90;;;;;;5086335;28;21049;-70
2021/05/15 02:30:59;;;;;;;10.33;3.30;;;13.10;99.90;;;;;;5079086;28;20222;-69
2021/05/15 02:33:25;;;;;;;12.63;3.47;;;13.10;99.90;;;;;;5086936;28;20178;-70
2021/05/15 02:35:52;;;;;;;9.00;3.10;;;13.20;99.90;;;;;;5064441;28;20217;-71
2021/05/15 02:38:20;;;;;;;7.53;2.67;;;13.10;99.90;;;;;;5069876;28;20226;-69
2021/05/15 02:40:47;;;;;;;12.00;3.23;;;13.00;99.90;;;;;;5067933;28;20190;-70
2021/05/15 02:43:17;;;;;;;7.63;2.70;;;13.00;99.90;;;;;;5085896;28;20266;-70
2021/05/15 02:45:44;;;;;;;7.97;2.93;;;13.00;99.90;;;;;;5082394;28;20186;-70
2021/05/15 02:48:16;;;;;;;11.03;3.07;;;12.80;99.90;;;;;;5085941;28;20194;-71
2021/05/15 02:50:48;;;;;;;6.97;2.80;;;12.70;99.90;;;;;;5084931;28;20678;-72
2021/05/15 02:53:15;;;;;;;7.90;3.40;;;12.70;99.90;;;;;;5070308;28;20186;-72
2021/05/15 02:55:42;;;;;;;9.03;3.50;;;12.80;99.90;;;;;;5066140;28;20187;-70
2021/05/15 02:58:10;;;;;;;8.90;3.40;;;12.90;99.90;;;;;;5073412;28;20227;-72
2021/05/15 03:00:37;;;;;;;10.77;3.73;;;13.00;99.90;;;;;;5079418;28;20185;-71
2021/05/15 03:03:04;;;;;;;11.33;3.20;;;13.00;99.90;;;;;;5063718;28;20193;-69
2021/05/15 03:05:31;;;;;;;9.33;3.30;;;12.90;99.90;;;;;;5070550;28;20198;-70
2021/05/15 03:07:57;;;;;;;9.13;3.10;;;13.10;99.90;;;;;;5085694;28;20186;-69
2021/05/15 03:10:27;;;;;;;5.97;3.13;;;13.20;99.90;;;;;;5081596;28;20336;-70
2021/05/15 03:12:55;;;;;;;9.27;3.00;;;13.20;99.90;;;;;;5083624;28;20204;-70
2021/05/15 03:15:24;;;;;;;6.00;2.90;;;13.20;99.90;;;;;;5081315;28;20201;-71
2021/05/15 03:17:52;;;;;;;4.97;2.60;;;13.00;99.90;;;;;;5068921;28;20226;-72
2021/05/15 03:20:25;;;;;;;8.80;2.50;;;13.00;99.90;;;;;;5084053;28;20194;-72
2021/05/15 03:22:53;;;;;;;7.47;2.60;;;13.00;99.90;;;;;;5084524;28;20195;-69
2021/05/15 03:25:21;;;;;;;7.33;2.57;;;13.00;99.90;;;;;;5067019;28;20178;-70
2021/05/15 03:27:48;;;;;;;5.10;2.67;;;13.00;99.90;;;;;;5086625;28;20263;-69
2021/05/15 03:30:15;;;;;;;11.03;3.17;;;13.10;99.90;;;;;;5067794;28;20210;-69
2021/05/15 03:32:42;;;;;;;10.33;2.90;;;13.10;99.90;;;;;;5078891;28;20182;-69
2021/05/15 03:35:14;;;;;;;11.97;3.00;;;13.10;99.90;;;;;;5080958;28;20188;-70
2021/05/15 03:37:41;;;;;;;8.23;3.00;;;13.10;99.90;;;;;;5086910;28;20231;-70
2021/05/15 03:40:09;;;;;;;6.23;3.33;;;13.10;99.90;;;;;;5068808;28;20214;-71
2021/05/15 03:42:37;;;;;;;8.37;3.40;;;13.10;99.90;;;;;;5066624;28;20329;-71
2021/05/15 03:45:06;;;;;;;13.07;3.37;;;13.30;99.90;;;;;;5084531;28;22404;-72
2021/05/15 03:47:33;;;;;;;12.60;3.90;;;13.40;99.90;;;;;;5082838;28;20817;-73
2021/05/15 03:49:59;;;;;;;12.03;3.93;;;13.50;99.90;;;;;;5086364;28;20237;-72
2021/05/15 03:52:26;;;;;;;8.57;3.40;;;13.60;99.90;;;;;;5083350;28;20186;-73
2021/05/15 03:54:52;;;;;;;7.30;3.10;;;13.60;99.90;;;;;;5083242;28;20194;-72
2021/05/15 03:57:18;;;;;;;11.00;3.60;;;13.60;99.90;;;;;;5068577;28;20705;-72
2021/05/15 03:59:45;;;;;;;8.57;3.50;;;13.60;99.90;;;;;;5084698;28;20190;-72
2021/05/15 04:02:11;;;;;;;6.07;2.87;;;13.60;99.90;;;;;;5078693;28;20272;-71
2021/05/15 04:04:37;;;;;;;7.90;3.23;;;13.60;99.90;;;;;;5079857;28;20639;-72
2021/05/15 04:07:04;;;;;;;8.87;3.10;;;13.60;99.90;;;;;;5068280;28;20213;-71
2021/05/15 04:09:32;;;;;;;6.63;2.70;;;13.60;99.90;;;;;;5083303;28;20263;-70
2021/05/15 04:11:58;;;;;;;8.70;2.80;;;13.50;99.90;;;;;;5082698;28;20876;-70
2021/05/15 04:14:30;;;;;;;6.40;2.63;;;13.40;99.90;;;;;;5082617;28;20324;-72
2021/05/15 04:17:13;;;;;;;6.07;2.30;;;13.30;99.90;;;;;;5080373;28;20226;-72
2021/05/15 04:19:39;;;;;;;12.67;2.80;;;13.30;99.90;;;;;;5081706;28;20190;-71
2021/05/15 04:22:07;;;;;;;5.27;2.60;;;13.40;99.90;;;;;;5084858;28;20186;-72
2021/05/15 04:24:34;;;;;;;5.60;2.80;;;13.40;99.90;;;;;;5084167;28;20190;-71
2021/05/15 04:27:04;;;;;;;11.20;3.17;;;13.50;99.90;;;;;;5084576;28;20186;-73
2021/05/15 04:29:31;;;;;;;8.37;2.27;;;13.50;99.90;;;;;;5080052;28;20279;-71
2021/05/15 04:31:59;;;;;;;3.77;2.60;;;13.60;99.90;;;;;;5080418;28;20186;-69
2021/05/15 04:34:28;;;;;;;9.47;3.00;;;13.60;99.90;;;;;;5072758;28;20635;-71
2021/05/15 04:36:56;;;;;;;8.97;3.10;;;13.70;99.90;;;;;;5079985;28;20221;-72
2021/05/15 04:39:22;;;;;;;8.27;2.67;;;13.90;99.90;;;;;;5085275;28;20174;-72
2021/05/15 04:41:48;;;;;;;7.73;3.00;;;14.10;99.90;;;;;;5084627;28;20178;-71
2021/05/15 04:44:15;;;;;;;10.30;2.70;;;14.20;99.90;;;;;;5084861;28;20206;-73
2021/05/15 04:46:41;;;;;;;5.67;2.90;;;14.40;99.90;;;;;;5085557;28;20190;-72
2021/05/15 04:49:08;;;;;;;7.10;3.50;;;14.50;99.90;;;;;;5066114;28;20193;-72
2021/05/15 04:51:34;;;;;;;8.40;3.00;;;14.70;99.90;;;;;;5083115;28;20185;-72
2021/05/15 04:54:02;;;;;;;7.10;2.83;;;14.80;99.90;;;;;;5082294;28;20240;-72
2021/05/15 04:56:29;;;;;;;5.73;2.53;;;14.90;99.90;;;;;;5082447;28;20265;-72
2021/05/15 04:58:57;;;;;;;5.90;2.77;;;15.10;99.90;;;;;;5062197;28;20189;-73
2021/05/15 05:01:23;;;;;;;8.60;3.10;;;15.20;99.90;;;;;;5067170;28;20178;-72
2021/05/15 05:03:50;;;;;;;6.30;3.10;;;15.30;99.90;;;;;;5062812;28;20198;-73
2021/05/15 05:06:16;;;;;;;8.17;3.20;;;15.40;99.90;;;;;;5075311;28;20278;-73
2021/05/15 05:08:43;;;;;;;6.83;2.70;;;15.50;99.90;;;;;;5083594;28;20650;-72
2021/05/15 05:11:09;;;;;;;8.20;3.07;;;15.60;99.90;;;;;;5080343;28;20251;-71
2021/05/15 05:13:36;;;;;;;9.03;2.97;;;15.70;99.90;;;;;;5083825;28;20182;-71
2021/05/15 05:16:03;;;;;;;9.63;3.37;;;15.70;99.90;;;;;;5060188;28;20220;-71
2021/05/15 05:18:29;;;;;;;10.90;2.80;;;15.90;99.90;;;;;;5100733;28;20190;-72
2021/05/15 05:20:57;;;;;;;8.40;2.83;;;16.00;99.90;;;;;;5079861;28;20186;-72
2021/05/15 05:23:24;;;;;;;6.23;2.70;;;16.10;99.90;;;;;;5065568;28;20277;-72
2021/05/15 05:25:51;;;;;;;10.10;2.90;;;16.20;99.90;;;;;;5069869;28;20215;-72
2021/05/15 05:28:22;;;;;;;11.13;2.80;;;16.30;99.90;;;;;;5068758;28;20219;-71
2021/05/15 05:30:49;;;;;;;9.33;2.50;;;16.30;99.90;;;;;;5087800;28;20213;-72
2021/05/15 05:33:16;;;;;;;7.90;2.80;;;16.40;99.90;;;;;;5072607;28;20273;-73
2021/05/15 05:35:42;;;;;;;7.67;2.20;;;16.70;99.90;;;;;;5074015;28;20205;-72
2021/05/15 05:38:09;;;;;;;8.10;2.57;;;16.80;99.90;;;;;;5082908;28;20643;-74
2021/05/15 05:40:36;;;;;;;9.10;3.00;;;16.90;99.90;;;;;;5067526;28;20189;-73
2021/05/15 05:43:02;;;;;;;6.03;2.17;;;17.00;99.90;;;;;;5079797;28;20206;-71
2021/05/15 05:45:29;;;;;;;6.83;1.57;;;17.00;99.90;;;;;;5083819;28;20202;-72
2021/05/15 05:47:55;;;;;;;9.40;2.00;;;17.10;99.90;;;;;;5083654;28;22257;-69
2021/05/15 05:50:21;;;;;;;9.50;1.97;;;17.10;99.90;;;;;;5069491;28;20229;-71
2021/05/15 05:52:48;;;;;;;5.77;1.70;;;17.30;99.90;;;;;;5069443;28;20179;-74
2021/05/15 05:55:14;;;;;;;16.67;2.30;;;17.30;99.90;;;;;;5086965;28;20182;-71
2021/05/15 05:57:40;;;;;;;8.53;2.40;;;17.40;99.90;;;;;;5085284;28;20178;-72
2021/05/15 06:00:09;;;;;;;6.63;1.77;;;17.50;99.90;;;;;;5063490;28;20195;-73
2021/05/15 06:02:35;;;;;;;8.17;2.10;;;17.80;99.90;;;;;;5083686;28;20193;-71
2021/05/15 06:05:02;;;;;;;7.47;2.00;;;17.90;99.90;;;;;;5062465;28;20188;-72
2021/05/15 06:07:29;;;;;;;3.40;1.63;;;18.00;99.90;;;;;;5060408;28;20203;-70
2021/05/15 06:09:55;;;;;;;7.47;1.83;;;18.10;99.90;;;;;;5086366;28;20210;-72
2021/05/15 06:12:21;;;;;;;5.67;1.60;;;18.10;99.90;;;;;;5068427;28;20263;-72
2021/05/15 06:14:48;;;;;;;5.53;1.63;;;18.30;99.90;;;;;;5084937;28;21005;-72
2021/05/15 06:17:14;;;;;;;5.53;1.90;;;18.40;99.90;;;;;;5069777;28;20193;-72
2021/05/15 06:19:42;;;;;;;6.03;1.80;;;18.50;99.90;;;;;;5070162;28;20196;-73
2021/05/15 06:22:11;;;;;;;7.90;1.60;;;18.50;99.90;;;;;;5083484;28;20193;-72
2021/05/15 06:24:41;;;;;;;5.73;1.70;;;18.80;99.90;;;;;;5084514;28;20281;-71
2021/05/15 06:27:08;;;;;;;9.33;1.63;;;19.00;99.90;;;;;;5087503;28;20194;-71
2021/05/15 06:29:36;;;;;;;5.83;1.37;;;19.10;99.90;;;;;;5087263;28;20206;-72
2021/05/15 06:32:03;;;;;;;9.93;1.57;;;19.20;99.90;;;;;;5066562;28;20186;-72
2021/05/15 06:34:29;;;;;;;4.00;1.40;;;19.20;99.90;;;;;;5086082;28;20198;-72
2021/05/15 06:36:56;;;;;;;6.67;1.67;;;19.60;99.90;;;;;;5077974;28;20298;-72
2021/05/15 06:39:22;;;;;;;5.33;1.60;;;19.60;99.90;;;;;;5082193;28;20183;-72
2021/05/15 06:41:49;;;;;;;7.13;1.73;;;19.70;99.90;;;;;;5082760;28;20191;-72
2021/05/15 06:44:15;;;;;;;8.03;2.03;;;19.70;99.90;;;;;;5088661;28;20190;-73
2021/05/15 06:46:41;;;;;;;10.00;1.83;;;20.00;99.90;;;;;;5065041;28;20186;-72
2021/05/15 06:49:07;;;;;;;9.53;1.97;;;20.20;99.90;;;;;;5083443;28;20374;-71
2021/05/15 06:51:34;;;;;;;6.03;2.20;;;20.40;99.90;;;;;;5087474;28;20193;-72
2021/05/15 06:54:00;;;;;;;12.60;2.27;;;20.40;99.90;;;;;;5083357;28;20183;-73
2021/05/15 06:56:27;;;;;;;9.77;2.13;;;20.60;99.90;;;;;;5084228;28;20186;-72
2021/05/15 06:58:53;;;;;;;11.37;2.17;;;20.90;99.90;;;;;;5083443;28;20274;-72
2021/05/15 07:01:19;;;;;;;7.83;1.87;;;21.00;99.90;;;;;;5080734;28;20519;-72
2021/05/15 07:03:45;;;;;;;7.00;2.13;;;21.10;99.90;;;;;;5082613;28;20218;-72
2021/05/15 07:06:15;;;;;;;14.30;2.10;;;21.10;99.90;;;;;;5063873;28;20198;-72
2021/05/15 07:08:41;;;;;;;10.00;2.20;;;21.30;99.90;;;;;;5075583;28;20749;-72
2021/05/15 07:11:07;;;;;;;7.83;2.20;;;21.30;99.90;;;;;;5065388;28;20320;-71
2021/05/15 07:13:34;;;;;;;5.90;1.67;;;21.30;99.90;;;;;;5080330;28;20243;-72
2021/05/15 07:16:00;;;;;;;5.10;1.97;;;21.40;99.90;;;;;;5079719;28;20194;-72
2021/05/15 07:18:26;;;;;;;7.97;2.40;;;21.40;99.90;;;;;;5084038;28;20186;-73
2021/05/15 07:20:53;;;;;;;4.47;1.73;;;21.70;99.90;;;;;;5083669;28;20205;-72
2021/05/15 07:23:19;;;;;;;11.33;2.03;;;21.80;99.90;;;;;;5081637;28;20224;-72
2021/05/15 07:25:46;;;;;;;4.23;1.57;;;21.80;99.90;;;;;;5079069;28;20201;-72
2021/05/15 07:28:12;;;;;;;4.30;1.73;;;22.00;96.50;;;;;;5080760;28;20182;-71
2021/05/15 07:30:39;;;;;;;9.77;2.13;;;22.10;99.90;;;;;;5083378;28;20217;-72
2021/05/15 07:33:07;;;;;;;10.53;2.20;;;22.20;99.90;;;;;;5078897;28;20289;-72
2021/05/15 07:35:34;;;;;;;11.30;2.27;;;22.40;99.90;;;;;;5082913;28;20213;-72
2021/05/15 07:38:00;;;;;;;7.90;2.40;;;22.50;99.90;;;;;;5076561;28;20190;-72
2021/05/15 07:40:27;;;;;;;6.73;2.20;;;22.60;99.90;;;;;;5072471;28;20194;-73
2021/05/15 07:42:54;;;;;;;7.97;2.23;;;22.70;99.90;;;;;;5084196;28;20194;-72
2021/05/15 07:45:20;;;;;;;9.00;1.90;;;22.80;99.90;;;;;;5077358;28;20208;-72
2021/05/15 07:47:46;;;;;;;8.27;2.37;;;22.80;99.90;;;;;;5080095;28;20197;-72
2021/05/15 07:50:13;;;;;;;6.20;2.20;;;22.80;99.90;;;;;;5057743;28;20271;-73
2021/05/15 07:52:40;;;;;;;10.80;2.93;;;22.90;99.90;;;;;;5078200;28;20186;-73
2021/05/15 07:55:08;;;;;;;14.83;2.93;;;23.00;99.90;;;;;;5080572;28;20273;-73
2021/05/15 07:57:35;;;;;;;5.60;2.40;;;23.10;99.90;;;;;;5065490;28;20674;-72
2021/05/15 08:00:06;;;;;;;12.53;3.17;;;23.20;99.90;;;;;;5078547;28;20204;-71
2021/05/15 08:02:34;;;;;;;7.93;2.50;;;23.30;99.90;;;;;;5062952;28;20186;-72
2021/05/15 08:05:09;;;;;;;9.93;2.73;;;23.30;99.90;;;;;;5066840;28;20752;-72
2021/05/15 08:07:38;;;;;;;11.73;2.83;;;23.30;99.90;;;;;;5077877;28;20571;-73
2021/05/15 08:10:08;;;;;;;10.97;2.90;;;23.30;99.90;;;;;;5067332;28;20286;-72
2021/05/15 08:12:36;;;;;;;10.63;2.60;;;23.30;99.90;;;;;;5065787;28;20217;-71
2021/05/15 08:15:06;;;;;;;8.70;2.57;;;23.40;99.90;;;;;;5063607;28;20178;-71
2021/05/15 08:17:34;;;;;;;9.03;2.70;;;23.50;99.90;;;;;;5064579;28;20251;-72
2021/05/15 08:20:03;;;;;;;11.33;2.53;;;23.50;99.90;;;;;;5064673;28;20864;-71
2021/05/15 08:22:29;;;;;;;9.10;2.93;;;23.60;99.90;;;;;;5078325;28;20659;-72
2021/05/15 08:24:58;;;;;;;8.53;2.70;;;23.60;99.90;;;;;;5064444;28;20190;-70
2021/05/15 08:27:25;;;;;;;15.13;3.53;;;23.60;99.90;;;;;;5082878;28;20567;-71
2021/05/15 08:29:56;;;;;;;11.87;3.00;;;23.70;99.90;;;;;;5077314;28;20214;-71
2021/05/15 08:32:25;;;;;;;9.37;2.73;;;23.70;99.90;;;;;;5083533;28;20174;-70
2021/05/15 08:34:51;;;;;;;13.23;3.03;;;23.70;99.90;;;;;;5079032;28;20273;-70
2021/05/15 08:37:19;;;;;;;14.60;3.23;;;23.80;99.90;;;;;;5080540;28;20282;-70
2021/05/15 08:39:45;;;;;;;10.97;3.17;;;23.90;99.90;;;;;;5060478;28;20190;-73
2021/05/15 08:42:13;;;;;;;7.27;2.80;;;24.10;99.90;;;;;;5056376;28;20776;-72
2021/05/15 08:44:45;;;;;;;8.90;2.80;;;24.30;99.90;;;;;;5077048;28;20190;-72
2021/05/15 08:47:16;;;;;;;9.13;2.80;;;24.30;99.90;;;;;;5055070;28;20198;-72
2021/05/15 08:49:45;;;;;;;10.50;2.83;;;24.40;99.90;;;;;;5083275;28;20295;-71
2021/05/15 08:52:15;;;;;;;8.37;3.07;;;24.40;99.90;;;;;;5079457;28;20185;-70
2021/05/15 08:54:41;;;;;;;8.93;2.90;;;24.60;99.90;;;;;;5082530;28;20183;-71
2021/05/15 08:57:08;;;;;;;7.85;2.60;;;24.70;99.90;;;;;;5063643;28;20187;-70
2021/05/15 08:59:35;;;;;;;6.78;2.78;;;24.70;99.90;;;;;;5080146;28;20249;-70
2021/05/15 09:02:01;;;;;;;8.55;3.03;;;24.70;99.90;;;;;;5065659;28;20186;-70
2021/05/15 09:04:28;;;;;;;10.00;2.28;;;24.80;99.90;;;;;;5071013;28;20228;-70
2021/05/15 09:06:54;;;;;;;7.85;2.60;;;24.80;99.90;;;;;;5079428;28;20209;-73
2021/05/15 09:09:20;;;;;;;6.75;2.55;;;24.80;99.90;;;;;;5085684;28;20182;-71
2021/05/15 09:11:47;;;;;;;7.30;2.60;;;25.00;99.90;;;;;;5072321;28;20194;-70
2021/05/15 09:14:19;;;;;;;11.25;2.70;;;24.90;99.90;;;;;;5098881;27;20182;-72
2021/05/15 09:16:52;;;;;;;7.80;2.22;;;25.30;99.90;;;;;;5079386;28;20225;-73
2021/05/15 09:19:22;;;;;;;9.80;2.55;;;25.30;99.90;;;;;;5068119;28;20442;-72
2021/05/15 09:22:06;;;;;;;11.85;2.63;;;25.30;99.90;;;;;;5087981;28;20214;-73
2021/05/15 09:24:41;;;;;;;9.93;2.60;;;25.70;99.90;;;;;;5079166;28;20205;-72
2021/05/15 09:27:11;;;;;;;7.90;2.30;;;26.20;99.90;;;;;;5098972;27;20185;-73
2021/05/15 09:29:50;;;;;;;6.57;2.15;;;26.30;99.90;;;;;;5080742;28;20950;-73
2021/05/15 09:32:33;;;;;;;13.15;2.30;;;26.40;99.90;;;;;;5066257;28;20191;-72
2021/05/15 09:35:01;;;;;;;8.68;2.53;;;26.40;99.90;;;;;;5101604;27;20633;-72
2021/05/15 09:37:50;;;;;;;10.00;2.20;;;26.50;99.90;;;;;;5079109;28;20189;-72
2021/05/15 09:40:28;;;;;;;9.00;2.20;;;26.70;99.90;;;;;;5097503;28;20709;-70
2021/05/15 09:43:02;;;;;;;11.35;2.70;;;26.60;99.90;;;;;;5057943;28;20664;-70
2021/05/15 09:45:33;;;;;;;10.35;2.50;;;26.70;99.90;;;;;;5086393;28;20185;-70
2021/05/15 09:48:10;;;;;;;7.90;2.22;;;26.80;99.90;;;;;;5086682;28;20194;-72
2021/05/15 09:50:41;;;;;;;10.55;2.63;;;26.80;99.90;;;;;;5066516;28;20222;-70
2021/05/15 09:53:17;;;;;;;6.57;2.33;;;26.80;99.90;;;;;;5093734;27;20243;-70
2021/05/15 09:55:51;;;;;;;9.25;2.35;;;26.70;99.90;;;;;;5083936;28;20666;-70
2021/05/15 09:58:17;;;;;;;8.07;2.95;;;26.90;99.90;;;;;;5086581;28;20737;-70
2021/05/15 10:00:47;;;;;;;13.52;2.75;;;27.10;99.90;;;;;;5067264;28;20247;-71
2021/05/15 10:03:33;;;;;;;8.68;2.67;;;27.10;99.90;;;;;;5086221;28;20186;-70
2021/05/15 10:06:12;;;;;;;6.25;2.50;;;27.30;99.90;;;;;;5067730;28;20626;-70
2021/05/15 10:08:43;;;;;;;14.13;2.60;;;27.40;99.90;;;;;;5069084;28;20205;-70
2021/05/15 10:11:11;;;;;;;9.35;2.78;;;27.10;99.90;;;;;;5068943;28;20221;-70
2021/05/15 10:13:42;;;;;;;11.18;2.47;;;27.40;99.90;;;;;;5071220;28;20598;-70
2021/05/15 10:16:09;;;;;;;7.20;2.30;;;27.50;99.90;;;;;;5084836;28;20277;-70
2021/05/15 10:18:35;;;;;;;8.30;2.35;;;27.70;99.90;;;;;;5085191;28;20212;-70
2021/05/15 10:21:04;;;;;;;34.70;3.53;;;27.50;99.90;;;;;;5085612;28;20209;-70
2021/05/15 10:23:39;;;;;;;13.65;2.30;;;27.50;99.90;;;;;;5087716;28;20263;-71
2021/05/15 10:26:20;;;;;;;7.03;2.35;;;27.20;99.90;;;;;;5065775;28;20189;-70
2021/05/15 10:29:02;;;;;;;9.70;2.58;;;26.60;99.90;;;;;;5102570;27;20189;-70
2021/05/15 10:31:44;;;;;;;11.05;2.35;;;26.00;99.90;;;;;;5085185;28;20220;-70
2021/05/15 10:34:11;;;;;;;16.80;2.85;;;26.20;99.90;;;;;;5082607;28;20819;-71
2021/05/15 10:36:50;;;;;;;13.73;2.97;;;26.40;99.90;;;;;;5082040;28;20239;-70
2021/05/15 10:39:33;;;;;;;14.57;2.42;;;26.70;99.90;;;;;;5085306;28;20588;-71
2021/05/15 10:42:04;;;;;;;10.18;2.25;;;26.90;99.90;;;;;;5085201;28;20692;-70
2021/05/15 10:44:50;;;;;;;12.20;2.85;;;27.00;99.90;;;;;;5072857;28;20208;-70
2021/05/15 10:47:17;;;;;;;6.97;2.35;;;26.90;99.90;;;;;;5080290;28;20186;-70
2021/05/15 10:49:47;;;;;;;12.50;2.75;;;27.00;99.90;;;;;;5081413;28;20202;-71
2021/05/15 10:52:17;;;;;;;11.63;2.88;;;26.90;99.90;;;;;;5079053;28;20198;-71
2021/05/15 10:54:47;;;;;;;9.13;3.20;;;26.80;99.90;;;;;;5082828;28;20204;-71
2021/05/15 10:57:22;;;;;;;15.23;2.85;;;26.40;99.90;;;;;;5085559;28;20681;-73
2021/05/15 11:00:09;;;;;;;14.25;3.00;;;25.90;99.90;;;;;;5067267;28;20190;-70
2021/05/15 11:02:40;;;;;;;8.70;2.80;;;26.30;99.90;;;;;;5087653;28;20331;-70
2021/05/15 11:05:17;;;;;;;10.82;3.30;;;26.20;99.90;;;;;;5066812;28;20217;-71
2021/05/15 11:07:44;;;;;;;9.48;2.60;;;26.30;99.90;;;;;;5079146;28;20217;-73
2021/05/15 11:10:17;;;;;;;7.57;2.60;;;26.20;99.90;;;;;;5080080;28;20205;-71
2021/05/15 11:12:53;;;;;;;10.15;2.72;;;26.20;99.90;;;;;;5068224;28;20189;-70
2021/05/15 11:15:28;;;;;;;8.75;2.75;;;26.30;99.90;;;;;;5071555;28;20232;-70
2021/05/15 11:18:05;;;;;;;11.50;3.22;;;26.10;99.90;;;;;;5060970;28;20274;-74
2021/05/15 11:20:43;;;;;;;9.18;3.35;;;25.90;99.90;;;;;;5075174;28;20181;-73
2021/05/15 11:23:17;;;;;;;5.97;2.35;;;25.30;99.90;;;;;;5064440;28;20188;-73
2021/05/15 11:26:02;;;;;;;10.73;3.03;;;25.10;99.90;;;;;;5080436;28;20190;-72
2021/05/15 11:28:31;;;;;;;9.18;2.72;;;25.50;99.90;;;;;;5062594;28;20336;-73
2021/05/15 11:30:58;;;;;;;12.02;3.15;;;25.70;99.90;;;;;;5098942;27;20321;-72
2021/05/15 11:33:26;;;;;;;13.38;3.20;;;25.90;99.90;;;;;;5063646;28;20186;-73
2021/05/15 11:35:57;;;;;;;10.82;2.95;;;25.60;99.90;;;;;;5074710;28;20186;-73
2021/05/15 11:38:31;;;;;;;14.60;3.40;;;25.50;99.90;;;;;;5077817;28;20178;-73
2021/05/15 11:41:04;;;;;;;8.85;3.00;;;25.30;99.90;;;;;;5080890;28;20182;-72
2021/05/15 11:43:35;;;;;;;7.40;2.75;;;25.30;99.90;;;;;;5081684;28;20259;-72
2021/05/15 11:46:05;;;;;;;9.52;2.83;;;25.70;99.90;;;;;;5057600;28;20190;-73
2021/05/15 11:48:37;;;;;;;13.32;2.90;;;25.60;99.90;;;;;;5083421;28;20228;-72
2021/05/15 11:51:10;;;;;;;9.60;2.70;;;25.40;99.90;;;;;;5086876;28;20217;-72
2021/05/15 11:53:49;;;;;;;11.25;3.03;;;25.30;99.90;;;;;;5100953;28;20277;-73
2021/05/15 11:56:20;;;;;;;9.23;2.92;;;25.10;99.90;;;;;;5093872;28;20196;-73
2021/05/15 11:58:53;;;;;;;11.63;3.13;;;25.00;99.90;;;;;;5068241;28;20186;-72
2021/05/15 12:01:28;;;;;;;10.70;3.00;;;25.10;99.90;;;;;;5085779;28;20187;-72
2021/05/15 12:04:46;;;;;;;8.38;2.95;;;25.60;99.90;;;;;;5086137;28;20184;-72
2021/05/15 12:07:07;;;;;;;7.80;2.47;;;25.40;99.90;;;;;;5080772;28;20274;-72
2021/05/15 12:09:34;;;;;;;11.93;3.08;;;25.10;99.90;;;;;;5086856;28;20198;-72
2021/05/15 12:12:07;;;;;;;7.45;2.53;;;25.10;99.90;;;;;;5085187;28;20182;-72
2021/05/15 12:14:37;;;;;;;14.18;3.47;;;24.80;99.90;;;;;;5068169;28;20213;-73
2021/05/15 12:17:16;;;;;;;9.48;2.83;;;24.60;99.90;;;;;;5071434;28;20292;-72
2021/05/15 12:19:56;;;;;;;12.70;3.15;;;24.90;99.90;;;;;;5085694;28;20581;-71
2021/05/15 12:22:29;;;;;;;8.50;2.95;;;25.40;99.90;;;;;;5084864;28;20694;-73
2021/05/15 12:25:08;;;;;;;10.07;2.95;;;25.10;99.90;;;;;;5084517;28;20293;-73
2021/05/15 12:27:34;;;;;;;11.20;2.95;;;25.20;99.90;;;;;;5102048;27;20182;-72
2021/05/15 12:30:06;;;;;;;7.40;2.67;;;25.30;99.90;;;;;;5085502;28;20201;-73
2021/05/15 12:32:35;;;;;;;12.63;3.13;;;25.50;99.90;;;;;;5084082;28;20189;-72
2021/05/15 12:35:11;;;;;;;8.40;2.70;;;25.60;99.90;;;;;;5088662;28;20177;-72
2021/05/15 12:37:40;;;;;;;13.02;2.97;;;25.30;99.90;;;;;;5084929;28;20285;-72
2021/05/15 12:40:16;;;;;;;10.98;3.28;;;24.90;99.90;;;;;;5084932;28;20220;-72
2021/05/15 12:42:43;;;;;;;9.63;2.88;;;24.90;99.90;;;;;;5083360;28;20280;-72
2021/05/15 12:45:16;;;;;;;13.25;2.88;;;24.70;99.90;;;;;;5085095;28;20190;-73
2021/05/15 12:47:45;;;;;;;6.85;2.70;;;24.70;99.90;;;;;;5076582;28;20228;-73
2021/05/15 12:50:27;;;;;;;11.38;2.63;;;24.60;99.90;;;;;;5098580;28;20301;-73
2021/05/15 12:53:08;;;;;;;8.43;2.63;;;25.00;99.90;;;;;;5084063;28;20182;-72
2021/05/15 12:55:50;;;;;;;10.10;3.10;;;25.30;99.90;;;;;;5065924;28;20177;-71